createdAt,value
2018-09-05T00:02:31.859Z,54.0
2018-09-05T00:12:45.905Z,55.2
2018-09-05T00:22:59.593Z,54.5
2018-09-05T00:33:43.989Z,53.7
2018-09-05T00:43:58.332Z,53.5
2018-09-05T00:54:13.117Z,52.8
2018-09-05T01:04:24.882Z,53.1
2018-09-05T01:14:39.273Z,52.8
2018-09-05T01:25:24.327Z,52.8
2018-09-05T01:35:38.089Z,53.8
2018-09-05T01:45:51.782Z,54.1
2018-09-05T01:56:05.036Z,53.9
2018-09-05T02:06:18.679Z,54.8
2018-09-05T02:16:32.779Z,54.0
2018-09-05T02:26:46.684Z,53.7
2018-09-05T02:36:57.874Z,53.5
2018-09-05T02:47:13.118Z,53.0
2018-09-05T02:57:28.933Z,52.9
2018-09-05T03:08:13.387Z,52.8
2018-09-05T03:18:24.245Z,52.5
2018-09-05T03:29:09.045Z,52.5
2018-09-05T03:39:20.465Z,52.7
2018-09-05T03:49:34.808Z,52.7
2018-09-05T03:59:49.161Z,52.9
2018-09-05T04:10:00.470Z,53.4
2018-09-05T04:20:14.869Z,52.7
2018-09-05T04:30:29.117Z,52.8
2018-09-05T04:40:43.248Z,52.7
2018-09-05T04:50:57.341Z,52.3
2018-09-05T05:11:27.332Z,52.2
2018-09-05T05:21:40.696Z,52.1
2018-09-05T05:32:29.366Z,52.3
2018-09-05T05:43:14.004Z,53.1
2018-09-05T05:54:01.840Z,53.6
2018-09-05T06:04:20.822Z,53.9
2018-09-05T06:14:34.581Z,54.0
2018-09-05T06:24:53.923Z,54.1
2018-09-05T06:45:22.014Z,55.8
2018-09-05T06:55:33.175Z,55.9
2018-09-05T07:05:55.854Z,56.0
2018-09-05T07:16:09.396Z,56.0
2018-09-05T07:26:22.722Z,56.6
2018-09-05T07:36:36.873Z,55.9
2018-09-05T07:46:51.679Z,55.1
2018-09-05T07:57:05.637Z,52.5
2018-09-05T08:07:19.912Z,49.9
2018-09-05T08:17:50.811Z,47.3
2018-09-05T08:39:08.524Z,42.1
2018-09-05T08:49:39.666Z,40.1
2018-09-05T09:00:21.969Z,38.9
2018-09-05T09:10:36.010Z,37.4
2018-09-05T09:21:11.536Z,36.8
2018-09-05T09:31:25.098Z,35.8
2018-09-05T09:41:36.520Z,35.4
2018-09-05T09:51:50.711Z,34.6
2018-09-05T10:03:01.038Z,33.1
2018-09-05T10:13:20.700Z,33.2
2018-09-05T10:27:23.023Z,32.0
2018-09-05T10:38:45.992Z,30.6
2018-09-05T10:51:20.937Z,29.7
2018-09-05T12:09:40.170Z,26.5
2018-09-05T12:24:56.359Z,26.0
2018-09-05T12:38:57.130Z,25.4
2018-09-05T12:52:32.088Z,26.5
2018-09-05T13:16:23.466Z,27.1
2018-09-05T13:27:32.487Z,27.6
2018-09-05T14:13:30.552Z,28.1
2018-09-05T14:25:27.707Z,28.5
2018-09-05T15:52:49.631Z,29.7
2018-09-05T17:16:45.125Z,33.7
2018-09-05T17:33:33.950Z,34.2
2018-09-05T17:57:18.879Z,35.9
2018-09-05T18:08:08.253Z,36.7
2018-09-05T18:18:42.299Z,37.3
2018-09-05T19:57:11.844Z,40.8
2018-09-05T20:11:04.488Z,41.3
2018-09-05T20:58:47.735Z,42.1
2018-09-05T21:23:55.983Z,43.6
2018-09-05T21:47:41.207Z,46.6
2018-09-05T22:11:27.258Z,45.1
2018-09-05T22:23:51.013Z,46.3
2018-09-05T22:35:47.606Z,45.7
2018-09-05T23:20:17.396Z,46.6
2018-09-05T23:33:52.658Z,47.7
2018-09-05T23:58:17.569Z,47.5
